createdAt,value
2022-10-30T00:01:21.133Z,12.57
2022-10-30T00:03:50.594Z,13.85
2022-10-30T00:06:18.714Z,12.05
2022-10-30T00:08:46.833Z,9.60
2022-10-30T00:11:15.119Z,10.18
2022-10-30T00:13:45.334Z,13.52
2022-10-30T00:16:13.466Z,8.52
2022-10-30T00:18:42.014Z,8.07
2022-10-30T00:21:14.990Z,11.30
2022-10-30T00:23:47.960Z,13.30
2022-10-30T00:26:17.611Z,8.98
2022-10-30T00:28:46.035Z,11.32
2022-10-30T00:31:14.154Z,11.10
2022-10-30T00:33:42.230Z,14.40
2022-10-30T00:36:11.751Z,11.73
2022-10-30T00:38:39.875Z,10.20
2022-10-30T00:41:07.958Z,9.65
2022-10-30T00:43:40.111Z,11.85
2022-10-30T00:46:19.297Z,9.50
2022-10-30T00:48:54.422Z,10.05
2022-10-30T00:51:24.729Z,11.02
2022-10-30T00:53:54.330Z,10.57
2022-10-30T00:56:24.568Z,8.90
2022-10-30T00:58:58.250Z,11.23
2022-10-30T01:01:30.653Z,15.00
2022-10-30T01:04:03.452Z,11.45
2022-10-30T01:06:36.556Z,9.48
2022-10-30T01:09:05.950Z,10.60
2022-10-30T01:11:35.568Z,9.40
2022-10-30T01:14:09.373Z,12.77
2022-10-30T01:17:10.551Z,10.05
2022-10-30T01:19:52.681Z,11.18
2022-10-30T01:22:42.916Z,10.57
2022-10-30T01:25:33.929Z,10.60
2022-10-30T01:28:21.935Z,11.30
2022-10-30T01:31:14.552Z,11.50
2022-10-30T01:34:01.285Z,8.30
2022-10-30T01:36:38.851Z,8.40
2022-10-30T01:39:14.874Z,9.35
2022-10-30T01:41:43.343Z,10.35
2022-10-30T01:44:19.602Z,7.85
2022-10-30T01:47:04.859Z,7.93
2022-10-30T01:50:10.792Z,10.02
2022-10-30T01:52:50.554Z,10.80
2022-10-30T01:55:36.441Z,15.13
2022-10-30T01:58:12.147Z,8.55
2022-10-30T02:00:43.234Z,10.57
2022-10-30T02:03:14.496Z,8.77
2022-10-30T02:05:46.932Z,10.82
2022-10-30T02:08:15.238Z,10.02
2022-10-30T02:10:48.752Z,7.05
2022-10-30T02:13:17.275Z,10.77
2022-10-30T02:15:48.833Z,9.73
2022-10-30T02:18:17.134Z,7.22
2022-10-30T02:20:47.031Z,10.75
2022-10-30T02:23:18.891Z,9.23
2022-10-30T02:25:47.459Z,10.50
2022-10-30T02:28:15.562Z,8.68
2022-10-30T02:30:44.796Z,10.20
2022-10-30T02:33:12.996Z,11.98
2022-10-30T02:35:41.197Z,12.00
2022-10-30T02:38:11.034Z,9.98
2022-10-30T02:40:39.272Z,8.10
2022-10-30T02:43:09.049Z,10.55
2022-10-30T02:45:37.161Z,12.52
2022-10-30T02:48:05.848Z,12.77
2022-10-30T02:50:34.051Z,10.55
2022-10-30T02:53:02.410Z,9.20
2022-10-30T02:55:31.950Z,7.47
2022-10-30T02:58:00.087Z,10.32
2022-10-30T03:00:28.245Z,11.55
2022-10-30T03:02:57.832Z,8.02
2022-10-30T03:05:26.699Z,9.13
2022-10-30T03:07:56.556Z,7.82
2022-10-30T03:10:24.955Z,11.18
2022-10-30T03:12:55.183Z,8.55
2022-10-30T03:15:23.468Z,9.15
2022-10-30T03:17:52.711Z,10.70
2022-10-30T03:20:21.477Z,10.85
2022-10-30T03:22:49.611Z,9.10
2022-10-30T03:25:23.413Z,12.48
2022-10-30T03:27:57.123Z,11.02
2022-10-30T03:30:25.603Z,14.55
2022-10-30T03:32:54.045Z,10.25
2022-10-30T03:35:22.200Z,11.48
2022-10-30T03:37:50.741Z,12.60
2022-10-30T03:40:20.728Z,9.65
2022-10-30T03:42:48.918Z,10.27
2022-10-30T03:45:18.464Z,7.43
2022-10-30T03:47:46.601Z,6.30
2022-10-30T03:50:14.932Z,10.73
2022-10-30T03:52:43.021Z,15.02
2022-10-30T03:55:11.165Z,9.60
2022-10-30T03:57:41.994Z,11.75
2022-10-30T04:00:20.467Z,11.15
2022-10-30T04:02:58.078Z,11.70
2022-10-30T04:05:29.664Z,9.13
2022-10-30T04:08:00.475Z,10.93
2022-10-30T04:10:30.948Z,7.30
2022-10-30T04:13:04.370Z,8.70
2022-10-30T04:15:34.898Z,10.65
2022-10-30T04:18:03.227Z,9.73
2022-10-30T04:20:32.717Z,9.70
2022-10-30T04:23:04.257Z,10.05
2022-10-30T04:25:36.210Z,7.18
2022-10-30T04:28:04.731Z,10.82
2022-10-30T04:30:36.857Z,10.10
2022-10-30T04:33:07.203Z,12.52
2022-10-30T04:35:38.380Z,15.35
2022-10-30T04:38:14.018Z,8.30
2022-10-30T04:40:44.994Z,9.15
2022-10-30T04:43:15.399Z,9.75
2022-10-30T04:45:46.528Z,9.50
2022-10-30T04:48:17.714Z,8.00
2022-10-30T04:50:47.965Z,12.77
2022-10-30T04:53:25.867Z,11.10
2022-10-30T04:56:00.532Z,13.35
2022-10-30T04:58:29.559Z,10.13
2022-10-30T05:01:10.903Z,9.13
2022-10-30T05:03:39.126Z,7.00
2022-10-30T05:06:23.187Z,10.63
2022-10-30T05:08:51.965Z,9.95
2022-10-30T05:11:35.990Z,10.52
2022-10-30T05:14:04.152Z,11.90
2022-10-30T05:16:33.660Z,8.68
2022-10-30T05:19:04.225Z,7.60
2022-10-30T05:21:34.009Z,10.38
2022-10-30T05:24:02.266Z,10.63
2022-10-30T05:26:37.730Z,10.18
2022-10-30T05:29:06.158Z,10.85
2022-10-30T05:31:35.734Z,11.73
2022-10-30T05:34:07.653Z,11.35
2022-10-30T05:36:37.821Z,12.55
2022-10-30T05:39:06.041Z,10.35
2022-10-30T05:41:37.809Z,8.38
2022-10-30T05:44:06.218Z,12.85
2022-10-30T05:46:36.514Z,8.15
2022-10-30T05:49:17.590Z,10.90
2022-10-30T05:51:45.756Z,10.43
2022-10-30T05:54:14.067Z,7.95
2022-10-30T05:56:55.737Z,10.93
2022-10-30T05:59:24.595Z,10.63
2022-10-30T06:01:54.063Z,9.10
2022-10-30T06:04:22.192Z,10.45
2022-10-30T06:06:50.446Z,7.38
2022-10-30T06:09:18.730Z,8.70
2022-10-30T06:12:07.812Z,12.00
2022-10-30T06:15:05.211Z,9.23
2022-10-30T06:17:34.886Z,15.50
2022-10-30T06:20:35.326Z,7.05
2022-10-30T06:23:21.974Z,10.52
2022-10-30T06:25:54.630Z,8.32
2022-10-30T06:28:25.069Z,8.35
2022-10-30T06:30:55.269Z,5.95
2022-10-30T06:33:25.553Z,6.90
2022-10-30T06:35:54.014Z,8.10
2022-10-30T06:38:22.156Z,7.28
2022-10-30T06:40:51.267Z,6.85
2022-10-30T06:43:48.625Z,7.63
2022-10-30T06:46:30.549Z,9.82
2022-10-30T06:49:03.351Z,8.60
2022-10-30T06:51:33.641Z,7.60
2022-10-30T06:54:02.531Z,5.32
2022-10-30T06:56:56.972Z,7.78
2022-10-30T06:59:51.584Z,9.02
2022-10-30T07:02:42.528Z,9.27
2022-10-30T07:05:15.002Z,10.48
2022-10-30T07:07:43.321Z,8.90
2022-10-30T07:10:11.658Z,11.60
2022-10-30T07:12:59.779Z,7.65
2022-10-30T07:15:52.936Z,7.28
2022-10-30T07:18:25.103Z,9.93
2022-10-30T07:20:58.915Z,9.10
2022-10-30T07:23:27.992Z,11.75
2022-10-30T07:26:04.968Z,7.95
2022-10-30T07:28:37.371Z,10.15
2022-10-30T07:31:35.169Z,10.38
2022-10-30T07:34:39.814Z,11.88
2022-10-30T07:37:30.141Z,10.27
2022-10-30T07:40:18.442Z,10.02
2022-10-30T07:42:57.936Z,8.48
2022-10-30T07:45:34.430Z,10.48
2022-10-30T07:48:35.214Z,9.90
2022-10-30T07:51:08.791Z,8.35
2022-10-30T07:53:38.336Z,8.95
2022-10-30T07:56:07.329Z,10.05
2022-10-30T07:58:55.912Z,10.23
2022-10-30T08:01:56.269Z,13.57
2022-10-30T08:04:32.668Z,11.18
2022-10-30T08:07:10.237Z,9.85
2022-10-30T08:09:39.819Z,11.95
2022-10-30T08:12:09.201Z,10.80
2022-10-30T08:14:37.327Z,11.88
2022-10-30T08:17:07.548Z,12.48
2022-10-30T08:19:37.810Z,9.75
2022-10-30T08:22:06.032Z,13.30
2022-10-30T08:24:38.641Z,9.63
2022-10-30T08:27:07.537Z,13.48
2022-10-30T08:29:36.612Z,10.38
2022-10-30T08:32:05.286Z,13.07
2022-10-30T08:34:52.198Z,12.00
2022-10-30T08:37:21.184Z,10.10
2022-10-30T08:39:50.641Z,13.93
2022-10-30T08:42:33.694Z,11.52
2022-10-30T08:45:06.068Z,10.40
2022-10-30T08:48:03.351Z,10.55
2022-10-30T08:50:36.000Z,10.50
2022-10-30T08:53:06.368Z,9.13
2022-10-30T08:55:37.368Z,14.10
2022-10-30T08:58:09.623Z,14.82
2022-10-30T09:00:38.838Z,13.98
2022-10-30T09:03:12.807Z,19.45
2022-10-30T09:06:01.212Z,14.55
2022-10-30T09:08:48.060Z,14.38
2022-10-30T09:11:49.192Z,16.13
2022-10-30T09:14:17.451Z,11.98
2022-10-30T09:16:45.651Z,15.30
2022-10-30T09:19:18.821Z,13.38
2022-10-30T09:21:47.744Z,12.40
2022-10-30T09:24:15.943Z,11.50
2022-10-30T09:26:44.206Z,10.48
2022-10-30T09:29:23.849Z,13.13
2022-10-30T09:31:57.602Z,13.40
2022-10-30T09:37:19.552Z,12.48
2022-10-30T09:39:51.879Z,8.95
2022-10-30T09:42:48.271Z,13.98
2022-10-30T09:45:40.918Z,11.77
2022-10-30T09:48:35.090Z,14.52
2022-10-30T09:51:51.155Z,11.35
2022-10-30T09:54:37.004Z,13.18
2022-10-30T09:57:17.001Z,13.15
2022-10-30T10:00:00.649Z,9.85
2022-10-30T10:02:39.401Z,11.77
2022-10-30T10:05:18.147Z,13.30
2022-10-30T10:08:15.743Z,10.70
2022-10-30T10:11:15.388Z,12.65
2022-10-30T10:13:51.556Z,11.50
2022-10-30T10:16:22.213Z,10.70
2022-10-30T10:18:59.598Z,9.70
2022-10-30T10:21:30.514Z,14.05
2022-10-30T10:24:03.104Z,9.70
2022-10-30T10:26:45.331Z,9.80
2022-10-30T10:29:49.342Z,11.57
2022-10-30T10:33:04.961Z,9.25
2022-10-30T10:36:06.861Z,7.50
2022-10-30T10:38:56.966Z,10.20
2022-10-30T10:41:53.440Z,13.40
2022-10-30T10:44:45.209Z,10.00
2022-10-30T10:47:48.758Z,10.93
2022-10-30T10:50:25.832Z,7.22
2022-10-30T10:53:01.260Z,10.02
2022-10-30T10:55:36.214Z,9.45
2022-10-30T10:58:16.986Z,8.43
2022-10-30T11:00:47.156Z,12.63
2022-10-30T11:03:20.753Z,12.52
2022-10-30T11:05:54.550Z,10.88
2022-10-30T11:08:29.224Z,12.90
2022-10-30T11:11:00.373Z,10.40
2022-10-30T11:13:32.834Z,8.80
2022-10-30T11:16:12.931Z,10.32
2022-10-30T11:18:43.445Z,10.35
2022-10-30T11:21:17.488Z,8.95
2022-10-30T11:23:49.296Z,10.18
2022-10-30T11:26:30.885Z,17.92
2022-10-30T11:29:05.586Z,15.10
2022-10-30T11:31:37.991Z,11.25
2022-10-30T11:34:34.121Z,9.77
2022-10-30T11:37:03.276Z,11.75
2022-10-30T11:39:34.982Z,9.55
2022-10-30T11:42:08.343Z,8.52
2022-10-30T11:44:40.143Z,12.38
2022-10-30T11:47:11.102Z,8.50
2022-10-30T11:49:48.298Z,10.00
2022-10-30T11:52:21.948Z,11.50
2022-10-30T11:54:56.903Z,9.00
2022-10-30T11:57:34.607Z,10.30
2022-10-30T12:00:06.429Z,16.73
2022-10-30T12:02:44.008Z,10.98
2022-10-30T12:05:38.849Z,6.97
2022-10-30T12:08:22.266Z,10.38
2022-10-30T12:11:03.021Z,15.48
2022-10-30T12:13:39.836Z,11.88
2022-10-30T12:16:20.352Z,11.07
2022-10-30T12:19:01.946Z,9.35
2022-10-30T12:21:37.837Z,10.90
2022-10-30T12:24:13.612Z,9.90
2022-10-30T12:26:48.231Z,12.93
2022-10-30T12:29:19.667Z,16.38
2022-10-30T12:31:56.926Z,13.98
2022-10-30T12:34:44.814Z,6.88
2022-10-30T12:37:21.988Z,8.90
2022-10-30T12:40:02.491Z,9.07
2022-10-30T12:42:38.771Z,10.90
2022-10-30T12:45:19.578Z,10.93
2022-10-30T12:47:57.084Z,8.48
2022-10-30T12:50:30.711Z,12.05
2022-10-30T12:53:07.849Z,11.57
2022-10-30T12:55:40.911Z,8.93
2022-10-30T12:58:24.809Z,11.05
2022-10-30T13:01:01.622Z,13.55
2022-10-30T13:03:37.327Z,11.93
2022-10-30T13:06:16.360Z,9.10
2022-10-30T13:09:03.533Z,9.90
2022-10-30T13:11:44.203Z,8.52
2022-10-30T13:14:20.086Z,13.20
2022-10-30T13:16:48.463Z,14.95
2022-10-30T13:19:16.673Z,8.07
2022-10-30T13:21:56.719Z,11.55
2022-10-30T13:24:40.405Z,9.77
2022-10-30T13:27:17.836Z,10.65
2022-10-30T13:29:57.447Z,9.63
2022-10-30T13:32:42.549Z,13.00
2022-10-30T13:35:31.495Z,8.98
2022-10-30T13:38:07.131Z,11.13
2022-10-30T13:40:43.603Z,14.75
2022-10-30T13:43:26.435Z,7.60
2022-10-30T13:46:28.356Z,11.75
2022-10-30T13:49:20.625Z,12.00
2022-10-30T13:51:58.802Z,8.25
2022-10-30T13:54:33.055Z,15.38
2022-10-30T13:57:12.843Z,11.40
2022-10-30T13:59:57.773Z,12.27
2022-10-30T14:02:52.095Z,14.23
2022-10-30T14:05:32.330Z,10.60
2022-10-30T14:08:11.497Z,10.73
2022-10-30T14:10:47.649Z,10.48
2022-10-30T14:13:26.764Z,9.32
2022-10-30T14:15:58.274Z,10.23
2022-10-30T14:18:46.711Z,13.05
2022-10-30T14:21:42.561Z,12.23
2022-10-30T14:24:18.109Z,7.80
2022-10-30T14:26:53.532Z,10.45
2022-10-30T14:29:50.114Z,14.30
2022-10-30T14:32:52.882Z,10.68
2022-10-30T14:35:41.206Z,10.57
2022-10-30T14:38:36.763Z,12.63
2022-10-30T14:41:47.832Z,10.55
2022-10-30T14:44:50.732Z,11.55
2022-10-30T14:47:58.763Z,7.75
2022-10-30T14:50:47.370Z,12.05
2022-10-30T14:53:43.982Z,10.55
2022-10-30T14:56:31.461Z,9.60
2022-10-30T14:59:32.937Z,10.43
2022-10-30T15:02:24.957Z,10.43
2022-10-30T15:05:32.708Z,10.18
2022-10-30T15:08:29.402Z,11.48
2022-10-30T15:11:22.245Z,11.50
2022-10-30T15:13:55.442Z,9.63
2022-10-30T15:16:27.502Z,11.02
2022-10-30T15:19:02.928Z,9.45
2022-10-30T15:21:36.472Z,10.25
2022-10-30T15:24:14.580Z,9.77
2022-10-30T15:26:50.077Z,9.02
2022-10-30T15:29:22.255Z,10.02
2022-10-30T15:32:01.132Z,11.73
2022-10-30T15:34:30.983Z,7.47
2022-10-30T15:36:59.092Z,7.78
2022-10-30T15:39:28.571Z,8.13
2022-10-30T15:42:00.424Z,7.32
2022-10-30T15:44:32.930Z,7.90
2022-10-30T15:47:04.269Z,8.20
2022-10-30T15:49:35.154Z,10.88
2022-10-30T15:52:06.765Z,10.50
2022-10-30T15:54:36.258Z,8.25
2022-10-30T15:57:36.954Z,9.95
2022-10-30T15:59:58.132Z,10.88
2022-10-30T16:02:27.719Z,9.32
2022-10-30T16:04:56.181Z,9.95
2022-10-30T16:07:27.709Z,13.40
2022-10-30T16:10:00.956Z,9.07
2022-10-30T16:12:33.543Z,11.82
2022-10-30T16:15:08.459Z,10.85
2022-10-30T16:17:37.021Z,9.18
2022-10-30T16:20:06.648Z,9.15
2022-10-30T16:22:40.258Z,12.20
2022-10-30T16:25:12.773Z,9.38
2022-10-30T16:27:46.168Z,12.63
2022-10-30T16:30:17.080Z,10.43
2022-10-30T16:32:52.177Z,11.38
2022-10-30T16:35:24.621Z,7.50
2022-10-30T16:37:53.482Z,9.35
2022-10-30T16:40:27.640Z,9.50
2022-10-30T16:42:58.999Z,8.07
2022-10-30T16:45:51.609Z,9.82
2022-10-30T16:48:27.957Z,9.48
2022-10-30T16:51:05.028Z,10.50
2022-10-30T16:53:33.766Z,11.13
2022-10-30T16:56:04.042Z,12.85
2022-10-30T16:58:33.160Z,10.82
2022-10-30T17:01:07.151Z,12.27
2022-10-30T17:03:41.016Z,10.93
2022-10-30T17:06:27.998Z,12.02
2022-10-30T17:09:00.471Z,13.95
2022-10-30T17:11:39.930Z,9.82
2022-10-30T17:14:20.274Z,12.32
2022-10-30T17:16:57.262Z,15.82
2022-10-30T17:19:49.439Z,17.17
2022-10-30T17:22:21.404Z,16.35
2022-10-30T17:24:50.059Z,16.10
2022-10-30T17:27:36.064Z,12.52
2022-10-30T17:30:25.881Z,13.07
2022-10-30T17:32:55.272Z,15.70
2022-10-30T17:35:26.064Z,18.33
2022-10-30T17:37:57.261Z,17.23
2022-10-30T17:40:28.021Z,18.05
2022-10-30T17:42:57.509Z,19.83
2022-10-30T17:45:25.661Z,18.42
2022-10-30T17:47:53.892Z,15.10
2022-10-30T17:50:22.147Z,17.13
2022-10-30T17:52:50.543Z,17.50
2022-10-30T17:55:28.129Z,15.95
2022-10-30T17:57:57.667Z,19.13
2022-10-30T18:00:25.915Z,19.65
2022-10-30T18:02:54.158Z,13.57
2022-10-30T18:05:29.090Z,16.50
2022-10-30T18:07:57.256Z,13.68
2022-10-30T18:10:25.374Z,13.73
2022-10-30T18:12:53.511Z,16.02
2022-10-30T18:15:30.679Z,17.08
2022-10-30T18:17:59.220Z,18.38
2022-10-30T18:20:28.129Z,18.90
2022-10-30T18:22:56.916Z,18.50
2022-10-30T18:25:28.501Z,17.52
2022-10-30T18:27:56.805Z,18.42
2022-10-30T18:30:28.979Z,17.45
2022-10-30T18:32:58.099Z,15.80
2022-10-30T18:35:31.578Z,17.17
2022-10-30T18:37:59.834Z,18.98
2022-10-30T18:40:28.624Z,25.50
2022-10-30T18:42:57.534Z,17.77
2022-10-30T18:45:30.589Z,17.83
2022-10-30T18:48:00.793Z,21.23
2022-10-30T18:50:31.347Z,17.55
2022-10-30T18:53:00.580Z,17.58
2022-10-30T18:55:35.264Z,19.70
2022-10-30T18:58:04.278Z,14.93
2022-10-30T19:00:58.003Z,15.73
2022-10-30T19:03:23.758Z,14.27
2022-10-30T19:05:52.565Z,13.85
2022-10-30T19:08:20.768Z,11.32
2022-10-30T19:10:49.113Z,8.90
2022-10-30T19:13:20.533Z,12.75
2022-10-30T19:15:59.041Z,9.80
2022-10-30T19:18:31.155Z,10.02
2022-10-30T19:21:10.323Z,14.63
2022-10-30T19:23:42.935Z,11.20
2022-10-30T19:26:13.272Z,10.75
2022-10-30T19:28:42.072Z,10.18
2022-10-30T19:31:16.647Z,12.98
2022-10-30T19:33:45.452Z,10.82
2022-10-30T19:36:29.983Z,9.52
2022-10-30T19:38:58.425Z,9.77
2022-10-30T19:41:27.063Z,10.20
2022-10-30T19:43:55.806Z,10.07
2022-10-30T19:46:25.279Z,10.73
2022-10-30T19:48:58.264Z,11.95
2022-10-30T19:51:27.887Z,11.65
2022-10-30T19:53:56.199Z,10.93
2022-10-30T19:56:24.802Z,11.07
2022-10-30T19:58:53.031Z,15.57
2022-10-30T20:01:21.290Z,16.20
2022-10-30T20:03:50.887Z,13.55
2022-10-30T20:06:21.356Z,12.00
2022-10-30T20:08:49.564Z,17.80
2022-10-30T20:11:17.800Z,20.40
2022-10-30T20:13:47.225Z,16.38
2022-10-30T20:16:17.548Z,11.32
2022-10-30T20:18:45.779Z,13.38
2022-10-30T20:21:15.431Z,14.70
2022-10-30T20:23:43.835Z,16.25
2022-10-30T20:26:25.074Z,11.60
2022-10-30T20:28:53.998Z,15.70
2022-10-30T20:31:22.751Z,9.05
2022-10-30T20:33:50.927Z,10.45
2022-10-30T20:36:20.521Z,13.57
2022-10-30T20:38:48.780Z,13.65
2022-10-30T20:41:23.351Z,12.30
2022-10-30T20:43:52.278Z,15.60
2022-10-30T20:46:21.567Z,11.07
2022-10-30T20:48:50.367Z,8.65
2022-10-30T20:51:20.064Z,13.20
2022-10-30T20:53:48.314Z,14.25
2022-10-30T20:56:16.713Z,11.13
2022-10-30T20:58:44.864Z,12.23
2022-10-30T21:01:14.099Z,12.15
2022-10-30T21:03:42.317Z,12.52
2022-10-30T21:06:10.689Z,15.48
2022-10-30T21:08:40.301Z,21.15
2022-10-30T21:11:08.931Z,46.33
2022-10-30T21:13:38.207Z,48.10
2022-10-30T21:16:10.287Z,50.03
2022-10-30T21:18:38.560Z,38.92
2022-10-30T21:21:11.417Z,29.92
2022-10-30T21:23:40.992Z,25.13
2022-10-30T21:26:11.698Z,27.67
2022-10-30T21:28:40.474Z,28.00
2022-10-30T21:31:15.937Z,24.35
2022-10-30T21:33:44.080Z,17.75
2022-10-30T21:36:14.998Z,17.88
2022-10-30T21:38:45.414Z,16.38
2022-10-30T21:41:16.932Z,17.77
2022-10-30T21:43:50.514Z,16.27
2022-10-30T21:46:18.975Z,17.10
2022-10-30T21:48:47.302Z,15.18
2022-10-30T21:51:19.121Z,15.57
2022-10-30T21:53:49.668Z,18.95
2022-10-30T21:56:20.953Z,15.55
2022-10-30T21:58:50.315Z,18.75
2022-10-30T22:01:21.807Z,14.98
2022-10-30T22:03:50.641Z,18.45
2022-10-30T22:06:21.795Z,20.08
2022-10-30T22:08:54.445Z,20.75
2022-10-30T22:11:24.913Z,20.77
2022-10-30T22:13:55.721Z,14.65
2022-10-30T22:16:24.820Z,15.30
2022-10-30T22:18:53.591Z,12.13
2022-10-30T22:21:21.896Z,16.02
2022-10-30T22:23:51.395Z,11.32
2022-10-30T22:26:24.382Z,10.85
2022-10-30T22:28:58.044Z,14.68
2022-10-30T22:31:28.868Z,11.77
2022-10-30T22:33:57.309Z,11.25
2022-10-30T22:36:27.693Z,11.90
2022-10-30T22:39:00.568Z,11.50
2022-10-30T22:41:34.481Z,14.18
2022-10-30T22:44:08.869Z,12.57
2022-10-30T22:46:38.289Z,16.67
2022-10-30T22:49:07.182Z,12.82
2022-10-30T22:51:37.659Z,13.00
2022-10-30T22:54:10.628Z,11.18
2022-10-30T22:56:40.289Z,13.00
2022-10-30T22:59:12.787Z,13.00
2022-10-30T23:01:42.788Z,13.57
2022-10-30T23:04:15.949Z,11.88
2022-10-30T23:06:44.672Z,11.95
2022-10-30T23:09:19.034Z,13.02
2022-10-30T23:11:47.494Z,13.80
2022-10-30T23:14:16.249Z,15.52
2022-10-30T23:16:44.333Z,14.70
2022-10-30T23:19:12.550Z,14.75
2022-10-30T23:21:40.614Z,12.73
2022-10-30T23:24:09.371Z,9.30
2022-10-30T23:26:38.809Z,10.57
2022-10-30T23:29:07.328Z,11.52
2022-10-30T23:31:38.893Z,11.00
2022-10-30T23:34:10.347Z,12.30
2022-10-30T23:36:39.549Z,13.50
2022-10-30T23:39:10.863Z,15.00
2022-10-30T23:41:40.447Z,11.05
2022-10-30T23:44:13.136Z,10.75
2022-10-30T23:46:41.523Z,10.73
2022-10-30T23:49:09.721Z,14.47
2022-10-30T23:51:37.854Z,11.98
2022-10-30T23:54:06.343Z,9.77
2022-10-30T23:56:34.516Z,12.88
2022-10-30T23:59:03.998Z,13.52
